Los Gatos, CA (95032)

8:12 AM PDT on August 28, 2014 (GMT -0700)
Shannon | Change Station
CLOSE
Current Station
Personal Weather Station
Location: Los Gatos, CA
Elevation: 377 ft
Nearby Weather Stations

Elev 377 ft 37.23 °N, 121.96 °W | Updated 8 minutes ago

Overcast
Overcast
61.0 °F
Feels Like 61.0 °F
N
0.0
Wind Variable Wind from NW
Gusts 1.0 mph

Today
High -- | Low -- °F
--% Chance of Precip.
Yesterday
High -- | Low -- °F
Precip. -- in
6:35 AM 7:42 PM
Waxing Crescent, 8% visible
Pressure 30.07 in
Visibility 7.0 miles
Clouds Few 700 ft
Mostly Cloudy 1000 ft
Overcast 1200 ft
Dew Point 56 °F
Humidity 82%
Rainfall 0.00 in
Snow Depth Not available.
UV 0.0 out of 12
Pollen 7.30 out of 12
Ozone Good
PM2.5 Good
Flu Activity Not available.
METAR KSJC 281453Z 32005KT 7SM FEW007 BKN010 OVC012 17/14 A3007 RMK AO2 SLP183 T01670139 53006

More Conditions Fewer Conditions

Pressure 30.07 in
Visibility 7.0 miles
Clouds Few 700 ft
Mostly Cloudy 1000 ft
Overcast 1200 ft
Dew Point 56 °F
Humidity 82%
Rainfall 0.00 in
Snow Depth Not available.
UV 0.0 out of 12
Pollen 7.30 out of 12
Ozone Good
PM2.5 Good
Flu Activity Not available.
METAR KSJC 281453Z 32005KT 7SM FEW007 BKN010 OVC012 17/14 A3007 RMK AO2 SLP183 T01670139 53006

More Conditions Fewer Conditions

10-Day Weather Forecast

Almanac

Astronomy

Aug. 28, 2014 Rise Set
Actual Time 6:35 AM PDT 7:42 PM PDT
Civil Twilight 6:08 AM PDT 8:08 PM PDT
Nautical Twilight 5:36 AM PDT 8:40 PM PDT
Astronomical Twilight 5:03 AM PDT 9:13 PM PDT
Moon 9:27 AM PDT 9:14 PM PDT
Length of Visible Light 14h 00m
Length of Day
13h 06m
Tomorrow will be 2m 16s shorter.
Waxing Crescent, 8% of the Moon is Illuminated
Today
Waxing Crescent
Sep 2
First Quarter
Sep 8
Full
Sep 15
Last Quarter
Sep 24
New

Today's Extremes

State Highs State Lows

Community

WunderPhotos

Upload Photos

1,747,982 photos uploaded!

Nearby

Air Quality

  Air Quality AQ Index Pollutant
Yesterday Good
OZONE
Yesterday Good
PM2.5
Current Good
PM2.5
Current Good
OZONE
Thursday Good
OZONE
Friday Good
OZONE
Saturday Good
OZONE
Sunday Good
OZONE
Monday Good
OZONE

Snow Depth

Station Depth Elevation
Blue Lakes 0 in 8000 ft
Leavitt Lake 0 in 9400 ft
Forestdale Creek 0 in 8029 ft
Sonora Pass 0 in 8800 ft
Leavitt Meadows 1 in 7200 ft

Earthquake Activity

City Distance Mag. Time & Date
Napa, California 73 miles 2.6 11:57 AM PDT
2014-08-27
The Geysers, California 119 miles 2.6 7:42 AM PDT
2014-08-27
Soledad, California 66 miles 2.6 12:15 PM PDT
2014-08-26
Napa, California 72 miles 2.5 10:56 AM PDT
2014-08-26
Minimum magnitude displayed is 2.5.

Coastal Water Temperatures

Place Temperature
No Stations Reporting

Nearby Weather Stations